Time;durP1;ratioP1;P1;durP2;ratioP2;P2;SDS_P1;SDS_P2;PMS_P1;PMS_P2;Temp;Humidity;BMP_temperature;BMP_pressure;BME280_temperature;BME280_humidity;BME280_pressure;Samples;Min_cycle;Max_cycle;Signal;HPM_P1;HPM_P2
2022/03/04 00:01:58;;;;;;;29.88;17.73;;;1.10;99.90;;;;;;5064173;28;20495;-72
2022/03/04 00:04:23;;;;;;;24.38;16.58;;;1.10;99.90;;;;;;5055894;28;20065;-73
2022/03/04 00:06:49;;;;;;;27.13;16.92;;;1.10;99.90;;;;;;5058013;28;20073;-74
2022/03/04 00:09:15;;;;;;;25.67;15.23;;;1.10;99.90;;;;;;5067991;28;20070;-73
2022/03/04 00:11:41;;;;;;;27.27;16.73;;;1.10;99.90;;;;;;5069907;28;20495;-72
2022/03/04 00:14:08;;;;;;;29.85;17.48;;;1.10;99.90;;;;;;5065676;28;20055;-72
2022/03/04 00:16:34;;;;;;;34.72;18.77;;;1.10;99.90;;;;;;5066395;28;20456;-73
2022/03/04 00:19:07;;;;;;;23.65;15.48;;;1.00;99.90;;;;;;5068039;28;20040;-72
2022/03/04 00:21:37;;;;;;;26.95;17.27;;;1.10;99.90;;;;;;5068202;28;20090;-73
2022/03/04 00:24:08;;;;;;;24.27;13.88;;;1.00;99.90;;;;;;5062167;28;20048;-73
2022/03/04 00:26:34;;;;;;;28.88;16.17;;;1.00;99.90;;;;;;5067721;28;20056;-73
2022/03/04 00:29:00;;;;;;;23.73;14.48;;;0.80;99.90;;;;;;5061133;28;20032;-73
2022/03/04 00:31:26;;;;;;;26.65;14.55;;;0.80;99.90;;;;;;5062112;28;20139;-72
2022/03/04 00:33:52;;;;;;;25.25;14.07;;;0.90;99.90;;;;;;5066468;28;20044;-73
2022/03/04 00:36:22;;;;;;;20.33;12.65;;;0.80;99.90;;;;;;5066355;28;20044;-73
2022/03/04 00:38:49;;;;;;;20.50;15.43;;;0.70;99.90;;;;;;5065679;28;20055;-73
2022/03/04 00:41:18;;;;;;;22.70;14.25;;;0.70;99.90;;;;;;5067656;28;20170;-73
2022/03/04 00:43:43;;;;;;;25.38;13.77;;;0.70;99.90;;;;;;5064544;28;20127;-72
2022/03/04 00:46:10;;;;;;;31.33;14.45;;;0.70;99.90;;;;;;5065799;28;20218;-73
2022/03/04 00:48:36;;;;;;;25.25;13.10;;;0.70;99.90;;;;;;5063076;28;20102;-73
2022/03/04 00:51:02;;;;;;;27.40;14.52;;;0.60;99.90;;;;;;5061083;28;20132;-73
2022/03/04 00:53:28;;;;;;;19.23;12.50;;;0.60;99.90;;;;;;5066751;28;20377;-73
2022/03/04 00:55:53;;;;;;;24.27;13.57;;;0.60;99.90;;;;;;5068156;28;20051;-73
2022/03/04 00:58:19;;;;;;;17.45;10.98;;;0.60;99.90;;;;;;5067693;28;20497;-73
2022/03/04 01:00:44;;;;;;;23.25;11.90;;;0.50;99.90;;;;;;5056347;28;20083;-74
2022/03/04 01:03:10;;;;;;;19.95;12.00;;;0.50;99.90;;;;;;5067274;28;20059;-73
2022/03/04 01:05:37;;;;;;;20.98;11.98;;;0.40;99.90;;;;;;5066456;28;20044;-72
2022/03/04 01:08:03;;;;;;;21.17;11.60;;;0.40;99.90;;;;;;5068226;28;20461;-74
2022/03/04 01:10:28;;;;;;;25.27;12.75;;;0.40;99.90;;;;;;5044430;28;20124;-72
2022/03/04 01:12:54;;;;;;;20.23;11.30;;;0.30;99.90;;;;;;5062643;28;20087;-72
2022/03/04 01:15:19;;;;;;;17.25;10.68;;;0.30;99.90;;;;;;5065580;28;20501;-75
2022/03/04 01:17:45;;;;;;;21.63;12.80;;;0.30;99.90;;;;;;5068051;28;20056;-74
2022/03/04 01:20:11;;;;;;;24.65;15.30;;;0.30;99.90;;;;;;5068039;28;20028;-75
2022/03/04 01:22:36;;;;;;;21.42;12.43;;;0.40;99.90;;;;;;5064621;28;20044;-72
2022/03/04 01:25:03;;;;;;;22.33;11.30;;;0.30;99.90;;;;;;5054244;28;20060;-72
2022/03/04 01:27:29;;;;;;;23.95;13.75;;;0.30;99.90;;;;;;5066206;28;20411;-74
2022/03/04 01:29:54;;;;;;;27.98;13.68;;;0.30;99.90;;;;;;5059979;28;20041;-73
2022/03/04 01:32:20;;;;;;;21.50;12.75;;;0.30;99.90;;;;;;5061735;28;20039;-72
2022/03/04 01:34:45;;;;;;;18.92;12.30;;;0.20;99.90;;;;;;5061085;28;20095;-73
2022/03/04 01:37:11;;;;;;;23.33;12.20;;;0.30;99.90;;;;;;5068020;28;20047;-72
2022/03/04 01:39:37;;;;;;;21.75;12.75;;;0.20;99.90;;;;;;5053991;28;20041;-72
2022/03/04 01:42:03;;;;;;;24.27;12.90;;;0.20;99.90;;;;;;5052654;28;20056;-72
2022/03/04 01:44:29;;;;;;;15.85;10.35;;;0.10;99.90;;;;;;5061414;28;20029;-72
2022/03/04 01:46:55;;;;;;;26.98;13.70;;;0.20;99.90;;;;;;5063015;28;20502;-74
2022/03/04 01:49:21;;;;;;;21.95;13.20;;;0.10;99.90;;;;;;5050323;28;20029;-72
2022/03/04 01:51:46;;;;;;;25.45;12.90;;;0.20;99.90;;;;;;5058365;28;20102;-72
2022/03/04 01:54:12;;;;;;;22.83;13.00;;;0.10;99.90;;;;;;5062614;28;20040;-72
2022/03/04 01:56:38;;;;;;;24.70;14.80;;;0.10;99.90;;;;;;5063981;28;20399;-72
2022/03/04 01:59:03;;;;;;;23.48;13.15;;;0.20;99.90;;;;;;5056453;28;20065;-72
2022/03/04 02:01:30;;;;;;;17.35;11.63;;;0.10;99.90;;;;;;5061643;28;20103;-72
2022/03/04 02:03:55;;;;;;;27.45;15.65;;;0.10;99.90;;;;;;5065854;28;20049;-70
2022/03/04 02:06:21;;;;;;;23.80;12.63;;;0.10;99.90;;;;;;5065862;28;20041;-72
2022/03/04 02:08:47;;;;;;;27.35;14.55;;;0.10;99.90;;;;;;5067278;28;20040;-72
2022/03/04 02:11:13;;;;;;;21.35;12.98;;;0.10;99.90;;;;;;5063351;28;20041;-72
2022/03/04 02:13:39;;;;;;;25.80;14.63;;;0.10;99.90;;;;;;5062079;28;20041;-73
2022/03/04 02:16:14;;;;;;;25.15;13.25;;;0.10;99.90;;;;;;5064765;28;20048;-72
2022/03/04 02:18:39;;;;;;;24.70;14.00;;;0.10;99.90;;;;;;5054417;28;20045;-72
2022/03/04 02:21:09;;;;;;;22.15;12.43;;;0.10;99.90;;;;;;5064986;28;20041;-72
2022/03/04 02:23:35;;;;;;;27.42;17.23;;;0.00;99.90;;;;;;5065809;28;20040;-73
2022/03/04 02:26:01;;;;;;;25.60;15.15;;;0.10;99.90;;;;;;5060150;28;20398;-73
2022/03/04 02:28:26;;;;;;;29.65;16.17;;;0.10;99.90;;;;;;5056407;28;20129;-71
2022/03/04 02:30:52;;;;;;;27.40;14.40;;;0.10;99.90;;;;;;5062913;28;20041;-72
2022/03/04 02:33:18;;;;;;;28.80;13.98;;;0.10;99.90;;;;;;5062090;28;20048;-72
2022/03/04 02:35:44;;;;;;;24.65;14.68;;;0.00;99.90;;;;;;5066518;28;20080;-73
2022/03/04 02:38:10;;;;;;;24.85;15.43;;;-0.10;99.90;;;;;;5058575;28;20483;-73
2022/03/04 02:40:36;;;;;;;28.63;13.90;;;-0.10;99.90;;;;;;5065516;28;20041;-73
2022/03/04 02:43:02;;;;;;;27.58;15.05;;;-0.10;99.90;;;;;;5057144;28;20079;-73
2022/03/04 02:45:27;;;;;;;25.05;14.05;;;-0.20;99.90;;;;;;5065084;28;20513;-72
2022/03/04 02:47:53;;;;;;;26.15;14.32;;;-0.20;99.90;;;;;;5054586;28;20068;-73
2022/03/04 02:50:19;;;;;;;24.10;13.30;;;-0.10;99.90;;;;;;5060490;28;20032;-73
2022/03/04 02:52:45;;;;;;;23.45;14.70;;;-0.20;99.90;;;;;;5060719;28;20131;-72
2022/03/04 02:55:11;;;;;;;29.02;13.85;;;-0.10;99.90;;;;;;5070622;28;20754;-73
2022/03/04 02:57:43;;;;;;;25.00;14.25;;;-0.10;99.90;;;;;;5065804;28;20074;-73
2022/03/04 03:00:10;;;;;;;28.20;14.43;;;-0.20;99.90;;;;;;5069153;28;20044;-72
2022/03/04 03:02:35;;;;;;;26.92;16.27;;;-0.20;99.90;;;;;;5065501;28;20040;-74
2022/03/04 03:05:01;;;;;;;28.90;15.60;;;-0.20;99.90;;;;;;5055417;28;20071;-73
2022/03/04 03:07:27;;;;;;;30.30;17.95;;;-0.20;99.90;;;;;;5067416;28;20569;-71
2022/03/04 03:09:53;;;;;;;24.50;14.95;;;-0.10;99.90;;;;;;5066039;28;20067;-73
2022/03/04 03:12:19;;;;;;;31.05;15.80;;;-0.20;99.90;;;;;;5065981;28;20493;-73
2022/03/04 03:14:45;;;;;;;36.45;17.02;;;-0.10;99.90;;;;;;5070056;28;20067;-72
2022/03/04 03:17:10;;;;;;;28.45;17.08;;;-0.20;99.90;;;;;;5067194;28;20048;-72
2022/03/04 03:19:36;;;;;;;30.58;17.40;;;-0.20;99.90;;;;;;5071700;28;20059;-72
2022/03/04 03:22:01;;;;;;;29.73;16.95;;;-0.10;99.90;;;;;;5068487;28;20044;-72
2022/03/04 03:24:27;;;;;;;27.50;16.13;;;-0.20;99.90;;;;;;5056754;28;20093;-72
2022/03/04 03:26:53;;;;;;;29.25;15.98;;;-0.20;99.90;;;;;;5065454;28;20399;-72
2022/03/04 03:29:19;;;;;;;29.20;14.73;;;-0.20;99.90;;;;;;5070592;28;20066;-72
2022/03/04 03:31:44;;;;;;;31.60;18.15;;;-0.20;99.90;;;;;;5067391;28;20507;-76
2022/03/04 03:34:10;;;;;;;30.63;19.05;;;-0.20;99.90;;;;;;5066778;28;20095;-74
2022/03/04 03:36:35;;;;;;;38.45;19.02;;;-0.20;99.90;;;;;;5063857;28;20056;-74
2022/03/04 03:39:01;;;;;;;35.22;18.48;;;-0.30;99.90;;;;;;5064132;28;20368;-74
2022/03/04 03:41:27;;;;;;;31.38;15.63;;;-0.30;99.90;;;;;;5060341;28;20097;-73
2022/03/04 03:43:53;;;;;;;33.30;18.27;;;-0.40;99.90;;;;;;5069145;28;20044;-75
2022/03/04 03:46:19;;;;;;;44.03;20.05;;;-0.30;99.90;;;;;;5068220;28;20384;-74
2022/03/04 03:48:45;;;;;;;33.30;18.02;;;-0.40;99.90;;;;;;5061391;28;20047;-74
2022/03/04 03:51:11;;;;;;;30.92;17.02;;;-0.40;99.90;;;;;;5065773;28;20119;-73
2022/03/04 03:53:37;;;;;;;36.35;17.05;;;-0.30;99.90;;;;;;5066721;28;20076;-73
2022/03/04 03:56:03;;;;;;;30.45;17.35;;;-0.30;99.90;;;;;;5067008;28;20253;-74
2022/03/04 03:58:29;;;;;;;33.70;19.63;;;-0.40;99.90;;;;;;5075536;28;20041;-73
2022/03/04 04:00:55;;;;;;;34.88;18.73;;;-0.40;99.90;;;;;;5069018;28;20098;-73
2022/03/04 04:03:20;;;;;;;33.65;19.83;;;-0.40;99.90;;;;;;5063721;28;20044;-75
2022/03/04 04:05:46;;;;;;;35.70;17.17;;;-0.40;99.90;;;;;;5063167;28;20056;-73
2022/03/04 04:08:12;;;;;;;28.30;16.15;;;-0.40;99.90;;;;;;5061048;28;21980;-72
2022/03/04 04:10:37;;;;;;;34.97;18.90;;;-0.50;99.90;;;;;;5067565;28;20036;-73
2022/03/04 04:13:03;;;;;;;30.38;17.60;;;-0.50;99.90;;;;;;5082808;28;20460;-73
2022/03/04 04:15:28;;;;;;;35.65;19.00;;;-0.50;99.90;;;;;;5068304;28;20045;-73
2022/03/04 04:17:54;;;;;;;37.00;19.20;;;-0.60;99.90;;;;;;5067912;28;20047;-73
2022/03/04 04:20:19;;;;;;;34.70;17.25;;;-0.50;99.90;;;;;;5067708;28;20135;-74
2022/03/04 04:22:45;;;;;;;42.10;19.35;;;-0.60;99.90;;;;;;5056303;28;20082;-74
2022/03/04 04:25:11;;;;;;;38.70;18.80;;;-0.70;99.90;;;;;;5055909;28;20033;-73
2022/03/04 04:27:36;;;;;;;32.55;17.65;;;-0.70;99.90;;;;;;5066210;28;20048;-74
2022/03/04 04:30:03;;;;;;;42.17;19.67;;;-0.70;99.90;;;;;;5065415;28;20037;-73
2022/03/04 04:32:28;;;;;;;38.05;20.60;;;-0.70;99.90;;;;;;5066382;28;20052;-74
2022/03/04 04:34:54;;;;;;;37.55;18.85;;;-0.70;99.90;;;;;;5067183;28;20043;-74
2022/03/04 04:37:20;;;;;;;32.30;17.48;;;-0.80;99.90;;;;;;5067211;28;20494;-73
2022/03/04 04:39:46;;;;;;;40.03;20.95;;;-0.80;99.90;;;;;;5064034;28;20127;-74
2022/03/04 04:42:12;;;;;;;37.60;21.73;;;-0.80;99.90;;;;;;5058814;28;20120;-75
2022/03/04 04:44:38;;;;;;;38.50;19.73;;;-0.90;99.90;;;;;;5061492;28;20387;-74
2022/03/04 04:47:06;;;;;;;38.72;19.73;;;-0.80;99.90;;;;;;5066038;28;20430;-75
2022/03/04 04:49:35;;;;;;;35.60;18.83;;;-0.80;99.90;;;;;;5056123;28;20052;-74
2022/03/04 04:52:01;;;;;;;41.13;19.70;;;-0.80;99.90;;;;;;5060385;28;20107;-74
2022/03/04 04:54:27;;;;;;;38.10;20.42;;;-0.80;99.90;;;;;;5065253;28;20496;-72
2022/03/04 04:56:52;;;;;;;36.53;18.38;;;-0.90;99.90;;;;;;5068673;28;20044;-74
2022/03/04 04:59:18;;;;;;;40.20;19.13;;;-0.90;99.90;;;;;;5059007;28;20036;-73
2022/03/04 05:01:43;;;;;;;34.60;19.08;;;-0.90;99.90;;;;;;5062476;28;20502;-73
2022/03/04 05:04:09;;;;;;;35.28;18.80;;;-1.00;99.90;;;;;;5062218;28;20106;-73
2022/03/04 05:06:34;;;;;;;38.65;20.10;;;-1.00;99.90;;;;;;5057347;28;20040;-73
2022/03/04 05:09:00;;;;;;;46.72;22.15;;;-1.00;99.90;;;;;;5061523;28;20037;-74
2022/03/04 05:11:26;;;;;;;43.80;20.13;;;-1.00;99.90;;;;;;5061527;28;20040;-73
2022/03/04 05:13:52;;;;;;;39.08;20.63;;;-1.00;99.90;;;;;;5065606;28;20484;-73
2022/03/04 05:16:17;;;;;;;38.55;18.58;;;-1.00;99.90;;;;;;5036840;28;20047;-73
2022/03/04 05:18:43;;;;;;;36.63;19.30;;;-1.00;99.90;;;;;;5065071;28;20056;-75
2022/03/04 05:21:09;;;;;;;40.72;20.83;;;-1.00;99.90;;;;;;5065714;28;20136;-73
2022/03/04 05:26:19;;;;;;;41.08;20.85;;;-1.20;99.90;;;;;;5057618;28;20044;-73
2022/03/04 05:28:44;;;;;;;36.10;18.63;;;-1.20;99.90;;;;;;5066439;28;20557;-74
2022/03/04 05:31:10;;;;;;;41.47;21.48;;;-1.20;99.90;;;;;;5060476;28;20135;-75
2022/03/04 05:33:36;;;;;;;41.78;22.08;;;-1.20;99.90;;;;;;5065063;28;20418;-73
2022/03/04 05:36:01;;;;;;;47.92;21.67;;;-1.20;99.90;;;;;;5061840;28;20154;-75
2022/03/04 05:38:27;;;;;;;42.88;20.90;;;-1.20;99.90;;;;;;5064637;28;20960;-73
2022/03/04 05:40:53;;;;;;;36.72;18.83;;;-1.30;99.90;;;;;;5065157;28;20083;-73
2022/03/04 05:43:18;;;;;;;39.95;21.45;;;-1.20;99.90;;;;;;5068473;28;20482;-73
2022/03/04 05:45:44;;;;;;;46.05;21.67;;;-1.30;99.90;;;;;;5066218;28;20052;-73
2022/03/04 05:48:09;;;;;;;41.47;21.05;;;-1.20;99.90;;;;;;5066884;28;20072;-74
2022/03/04 05:50:35;;;;;;;84.60;25.15;;;-1.10;99.90;;;;;;5061563;28;20041;-73
2022/03/04 05:53:00;;;;;;;42.85;21.42;;;-1.10;99.90;;;;;;5066450;28;20032;-71
2022/03/04 05:55:26;;;;;;;47.15;23.42;;;-1.20;99.90;;;;;;5065055;28;20068;-70
2022/03/04 05:57:52;;;;;;;51.35;24.60;;;-1.10;99.90;;;;;;5057370;28;20045;-72
2022/03/04 06:00:17;;;;;;;51.88;24.35;;;-1.10;99.90;;;;;;5066524;28;20041;-73
2022/03/04 06:02:43;;;;;;;45.38;24.67;;;-1.00;99.90;;;;;;5063754;28;20076;-72
2022/03/04 06:05:09;;;;;;;50.17;24.90;;;-1.00;99.90;;;;;;5068109;28;20048;-72
2022/03/04 06:07:35;;;;;;;46.90;21.15;;;-1.00;99.90;;;;;;5064011;28;20060;-73
2022/03/04 06:10:02;;;;;;;52.33;24.63;;;-1.00;99.90;;;;;;5065154;28;20048;-72
2022/03/04 06:12:27;;;;;;;53.63;27.08;;;-1.00;99.90;;;;;;5061547;28;20520;-73
2022/03/04 06:14:53;;;;;;;44.42;23.05;;;-1.00;99.90;;;;;;5063495;28;20041;-73
2022/03/04 06:17:18;;;;;;;47.42;23.60;;;-0.90;99.90;;;;;;5051460;28;20048;-73
2022/03/04 06:19:44;;;;;;;49.70;24.10;;;-0.90;99.90;;;;;;5060808;28;20123;-72
2022/03/04 06:22:10;;;;;;;54.40;25.75;;;-0.80;99.90;;;;;;5063773;28;20172;-73
2022/03/04 06:24:36;;;;;;;49.05;25.17;;;-0.90;99.90;;;;;;5053695;28;20033;-73
2022/03/04 06:27:02;;;;;;;48.72;26.23;;;-0.90;99.90;;;;;;5065845;28;20052;-73
2022/03/04 06:29:28;;;;;;;53.05;25.08;;;-0.90;99.90;;;;;;5069074;28;20115;-72
2022/03/04 06:31:53;;;;;;;49.38;24.98;;;-0.90;99.90;;;;;;5060019;28;20187;-74
2022/03/04 06:34:19;;;;;;;45.58;24.50;;;-0.90;99.90;;;;;;5057358;28;20133;-74
2022/03/04 06:36:45;;;;;;;46.30;22.65;;;-0.90;99.90;;;;;;5062457;28;20071;-76
2022/03/04 06:39:10;;;;;;;50.08;25.52;;;-0.90;99.90;;;;;;5068950;28;20501;-71
2022/03/04 06:41:37;;;;;;;44.28;22.50;;;-0.90;99.90;;;;;;5062707;28;20059;-71
2022/03/04 06:44:03;;;;;;;49.17;25.98;;;-0.80;99.90;;;;;;5067400;28;20402;-72
2022/03/04 06:46:29;;;;;;;47.25;25.73;;;-0.80;99.90;;;;;;5062130;28;20048;-71
2022/03/04 06:48:55;;;;;;;44.50;23.25;;;-0.70;99.90;;;;;;5062201;28;20060;-74
2022/03/04 06:51:20;;;;;;;53.72;25.05;;;-0.80;99.90;;;;;;5069196;28;20403;-73
2022/03/04 06:53:46;;;;;;;52.67;26.08;;;-0.70;99.90;;;;;;5068526;28;20155;-73
2022/03/04 06:56:15;;;;;;;43.42;23.33;;;-0.80;99.90;;;;;;5066697;28;20054;-72
2022/03/04 06:58:41;;;;;;;51.30;26.35;;;-0.80;99.90;;;;;;5064249;28;20098;-73
2022/03/04 07:01:07;;;;;;;51.60;23.92;;;-0.70;99.90;;;;;;5068445;28;20059;-72
2022/03/04 07:03:33;;;;;;;50.60;24.00;;;-0.80;99.90;;;;;;5052049;28;20084;-72
2022/03/04 07:05:59;;;;;;;50.17;25.80;;;-0.70;99.90;;;;;;5060031;28;20123;-74
2022/03/04 07:08:24;;;;;;;50.20;24.52;;;-0.70;99.90;;;;;;5072289;28;20041;-78
2022/03/04 07:10:50;;;;;;;49.55;23.42;;;-0.50;99.90;;;;;;5067606;28;20115;-78
2022/03/04 07:13:16;;;;;;;50.42;26.17;;;-0.60;99.90;;;;;;5067608;28;20052;-75
2022/03/04 07:15:42;;;;;;;52.38;27.08;;;-0.50;99.90;;;;;;5069070;28;20032;-74
2022/03/04 07:18:08;;;;;;;44.63;24.50;;;-0.60;99.90;;;;;;5062392;28;20037;-74
2022/03/04 07:20:33;;;;;;;55.15;27.30;;;-0.50;99.90;;;;;;5063165;28;20115;-74
2022/03/04 07:22:59;;;;;;;47.65;25.80;;;-0.60;99.90;;;;;;5068377;28;20028;-75
2022/03/04 07:25:25;;;;;;;52.92;28.90;;;-0.50;99.90;;;;;;5069274;28;20041;-74
2022/03/04 07:27:50;;;;;;;44.13;23.30;;;-0.50;99.90;;;;;;5070029;28;20052;-74
2022/03/04 07:30:17;;;;;;;49.00;24.80;;;-0.40;99.90;;;;;;5069125;28;20048;-74
2022/03/04 07:32:43;;;;;;;51.67;26.95;;;-0.30;99.90;;;;;;5065305;28;20051;-74
2022/03/04 07:35:10;;;;;;;52.05;25.98;;;-0.40;99.90;;;;;;5061279;28;20123;-73
2022/03/04 07:37:37;;;;;;;42.95;24.55;;;-0.50;99.90;;;;;;5060246;28;20051;-73
2022/03/04 07:40:04;;;;;;;48.17;24.55;;;-0.40;99.90;;;;;;5070619;28;20040;-73
2022/03/04 07:42:30;;;;;;;45.78;23.95;;;-0.50;99.90;;;;;;5069190;28;20088;-73
2022/03/04 07:44:56;;;;;;;43.97;25.50;;;-0.50;99.90;;;;;;5067176;28;20522;-72
2022/03/04 07:47:22;;;;;;;42.55;26.02;;;-0.40;99.90;;;;;;5059596;28;20037;-73
2022/03/04 07:49:47;;;;;;;46.13;24.52;;;-0.40;99.90;;;;;;5066492;28;20052;-76
2022/03/04 07:52:13;;;;;;;50.50;27.25;;;-0.40;99.90;;;;;;5060680;28;20051;-74
2022/03/04 07:54:39;;;;;;;51.70;26.85;;;-0.40;99.90;;;;;;5060552;28;20048;-74
2022/03/04 07:57:04;;;;;;;51.47;28.58;;;-0.30;99.90;;;;;;5069625;28;20064;-74
2022/03/04 07:59:30;;;;;;;52.75;28.67;;;-0.30;99.90;;;;;;5067013;28;20125;-74
2022/03/04 08:01:56;;;;;;;56.47;28.77;;;-0.20;99.90;;;;;;5052833;28;20084;-76
2022/03/04 08:04:22;;;;;;;46.10;27.83;;;-0.10;99.90;;;;;;5063892;28;20041;-76
2022/03/04 08:06:47;;;;;;;49.38;25.55;;;-0.10;99.90;;;;;;5070092;28;20509;-74
2022/03/04 08:09:13;;;;;;;48.22;26.25;;;-0.20;99.90;;;;;;5054056;28;20106;-75
2022/03/04 08:11:39;;;;;;;44.50;24.65;;;-0.20;99.90;;;;;;5057208;28;20494;-76
2022/03/04 08:14:04;;;;;;;54.28;26.52;;;-0.20;99.90;;;;;;5064394;28;20068;-76
2022/03/04 08:16:30;;;;;;;45.13;23.80;;;-0.10;99.90;;;;;;5059109;28;20055;-76
2022/03/04 08:18:56;;;;;;;45.78;25.30;;;-0.10;99.90;;;;;;5069557;28;20063;-72
2022/03/04 08:21:23;;;;;;;43.72;25.50;;;0.00;99.90;;;;;;5067169;28;20946;-76
2022/03/04 08:23:49;;;;;;;45.90;26.98;;;0.10;99.90;;;;;;5064416;28;20041;-73
2022/03/04 08:26:15;;;;;;;46.40;25.38;;;0.00;99.90;;;;;;5065002;28;20043;-76
2022/03/04 08:28:40;;;;;;;49.25;26.30;;;0.00;99.90;;;;;;5061976;28;20131;-75
2022/03/04 08:31:11;;;;;;;45.55;24.33;;;0.10;99.90;;;;;;5064641;28;20033;-76
2022/03/04 08:33:38;;;;;;;41.03;22.17;;;0.30;99.90;;;;;;5064870;28;20117;-76
2022/03/04 08:36:07;;;;;;;39.78;24.27;;;0.20;99.90;;;;;;5052256;28;20434;-78
2022/03/04 08:38:33;;;;;;;45.10;24.73;;;0.30;99.90;;;;;;5060544;28;20119;-77
2022/03/04 08:40:59;;;;;;;43.10;25.67;;;0.40;99.90;;;;;;5069516;28;20047;-77
2022/03/04 08:43:25;;;;;;;43.15;26.00;;;0.60;99.90;;;;;;5061134;28;20395;-75
2022/03/04 08:45:50;;;;;;;43.35;23.27;;;0.40;99.90;;;;;;5058705;28;20501;-76
2022/03/04 08:48:16;;;;;;;44.30;26.42;;;0.40;99.90;;;;;;5066089;28;20045;-76
2022/03/04 08:50:42;;;;;;;40.95;25.30;;;0.10;99.90;;;;;;5062791;28;20479;-76
2022/03/04 08:53:08;;;;;;;40.70;24.75;;;0.30;99.90;;;;;;5063480;28;20231;-76
2022/03/04 08:55:33;;;;;;;38.22;24.42;;;0.50;99.90;;;;;;5058117;28;20705;-75
2022/03/04 08:58:00;;;;;;;38.92;21.10;;;0.40;99.90;;;;;;5063329;28;20033;-75
2022/03/04 09:00:28;;;;;;;41.47;23.05;;;0.50;99.90;;;;;;5052577;28;20083;-72
2022/03/04 09:02:55;;;;;;;43.38;23.65;;;0.60;99.90;;;;;;5068919;28;20487;-74
2022/03/04 09:05:21;;;;;;;40.55;21.88;;;0.50;99.90;;;;;;5065127;28;20151;-75
2022/03/04 09:07:46;;;;;;;46.08;26.58;;;0.70;99.90;;;;;;5064789;28;20052;-75
2022/03/04 09:10:12;;;;;;;38.78;23.15;;;0.90;99.90;;;;;;5069568;28;20329;-79
2022/03/04 09:12:38;;;;;;;39.15;24.77;;;1.10;99.90;;;;;;5062057;28;20048;-80
2022/03/04 09:15:06;;;;;;;40.28;22.48;;;1.10;99.90;;;;;;5068138;28;20552;-77
2022/03/04 09:17:31;;;;;;;32.67;21.92;;;0.90;99.90;;;;;;5062882;28;20044;-79
2022/03/04 09:19:57;;;;;;;35.15;22.85;;;1.00;99.90;;;;;;5050744;28;20109;-80
2022/03/04 09:22:23;;;;;;;37.58;23.35;;;1.10;99.90;;;;;;5061118;28;20032;-78
2022/03/04 09:24:49;;;;;;;34.90;22.52;;;1.00;99.90;;;;;;5060181;28;20071;-79
2022/03/04 09:27:14;;;;;;;34.03;21.40;;;1.00;99.90;;;;;;5057949;28;20191;-80
2022/03/04 09:29:40;;;;;;;31.77;21.08;;;0.90;99.90;;;;;;5062472;28;20059;-78
2022/03/04 09:32:06;;;;;;;34.03;20.77;;;1.10;99.90;;;;;;5059230;28;20044;-77
2022/03/04 09:34:32;;;;;;;35.25;22.38;;;1.40;99.90;;;;;;5054942;28;20470;-77
2022/03/04 09:36:58;;;;;;;36.65;23.08;;;1.70;99.90;;;;;;5063879;28;20136;-78
2022/03/04 09:39:24;;;;;;;32.83;20.08;;;1.90;99.90;;;;;;5059504;28;20132;-79
2022/03/04 09:41:50;;;;;;;40.35;26.20;;;2.00;99.90;;;;;;5059257;28;20079;-78
2022/03/04 09:44:16;;;;;;;30.70;21.10;;;2.30;99.90;;;;;;5058844;28;20043;-69
2022/03/04 09:46:42;;;;;;;30.38;20.45;;;2.50;99.90;;;;;;5053662;28;20056;-78
2022/03/04 09:49:09;;;;;;;28.48;20.10;;;2.50;99.90;;;;;;5066281;28;20093;-77
2022/03/04 09:51:35;;;;;;;24.08;17.33;;;2.20;99.90;;;;;;5067007;28;20056;-77
2022/03/04 09:54:01;;;;;;;32.20;20.20;;;2.30;99.90;;;;;;5063730;28;20053;-77
2022/03/04 09:56:27;;;;;;;29.45;18.65;;;2.30;99.90;;;;;;5065308;28;20033;-76
2022/03/04 09:58:53;;;;;;;29.42;18.08;;;2.30;99.90;;;;;;5063323;28;20041;-81
2022/03/04 10:01:19;;;;;;;30.67;19.17;;;2.20;99.90;;;;;;5056677;28;20044;-80
2022/03/04 10:03:53;;;;;;;28.02;17.92;;;2.10;99.90;;;;;;5071339;28;20040;-80
2022/03/04 10:06:21;;;;;;;34.40;20.40;;;2.00;99.90;;;;;;5057291;28;20099;-80
2022/03/04 10:08:50;;;;;;;27.90;19.80;;;2.20;99.90;;;;;;5069733;28;20052;-83
2022/03/04 10:11:34;;;;;;;28.98;20.25;;;2.30;99.90;;;;;;5073011;28;20049;-80
2022/03/04 10:14:13;;;;;;;31.13;19.73;;;2.30;99.90;;;;;;5056901;28;20398;-79
2022/03/04 10:16:41;;;;;;;36.67;20.88;;;2.30;99.90;;;;;;5066220;28;20040;-79
2022/03/04 10:19:17;;;;;;;28.52;20.63;;;2.50;99.90;;;;;;5072957;28;20068;-80
2022/03/04 10:21:54;;;;;;;35.17;21.08;;;2.50;99.90;;;;;;5064930;28;20061;-78
2022/03/04 10:24:23;;;;;;;27.33;17.98;;;2.70;99.90;;;;;;5054057;28;20195;-79
2022/03/04 10:27:07;;;;;;;24.00;17.15;;;2.70;99.90;;;;;;5057901;28;20504;-82
2022/03/04 10:29:36;;;;;;;27.40;19.75;;;2.70;99.90;;;;;;5037499;28;20612;-81
2022/03/04 10:32:18;;;;;;;27.57;20.27;;;2.60;99.90;;;;;;5059955;28;20037;-79
2022/03/04 10:34:59;;;;;;;24.17;17.02;;;2.70;99.90;;;;;;5060832;28;20634;-78
2022/03/04 10:37:42;;;;;;;30.00;16.42;;;2.60;99.90;;;;;;5065272;28;20032;-82
2022/03/04 10:40:29;;;;;;;26.50;17.83;;;2.80;99.90;;;;;;5071755;28;20494;-80
2022/03/04 10:42:59;;;;;;;25.20;17.35;;;2.90;99.90;;;;;;5072266;28;20071;-82
2022/03/04 10:45:31;;;;;;;24.35;16.88;;;2.80;99.90;;;;;;5067456;28;20088;-73
2022/03/04 10:47:59;;;;;;;27.08;18.73;;;2.90;99.90;;;;;;5067663;28;20056;-77
2022/03/04 10:50:48;;;;;;;26.17;17.42;;;3.00;99.90;;;;;;5067574;28;20039;-81
2022/03/04 10:53:21;;;;;;;26.23;18.17;;;3.00;99.90;;;;;;5066799;28;20048;-81
2022/03/04 10:55:54;;;;;;;26.15;17.85;;;3.00;99.90;;;;;;5062257;28;20059;-81
2022/03/04 10:58:41;;;;;;;31.85;19.88;;;3.10;99.90;;;;;;5068719;28;20037;-80
2022/03/04 11:01:24;;;;;;;29.23;17.38;;;3.00;99.90;;;;;;5062700;28;20044;-79
2022/03/04 11:03:52;;;;;;;29.42;18.30;;;3.10;99.90;;;;;;5063651;28;20044;-75
2022/03/04 11:06:17;;;;;;;27.05;18.23;;;3.20;99.90;;;;;;5065044;28;20087;-76
2022/03/04 11:08:43;;;;;;;27.05;19.85;;;3.20;99.90;;;;;;5066378;28;20582;-80
2022/03/04 11:11:10;;;;;;;23.33;17.58;;;3.50;99.90;;;;;;5072834;28;20094;-81
2022/03/04 11:13:37;;;;;;;26.58;17.67;;;3.60;99.90;;;;;;5072380;28;20501;-79
2022/03/04 11:16:05;;;;;;;23.70;17.42;;;3.60;99.90;;;;;;5071066;28;20076;-81
2022/03/04 11:18:32;;;;;;;30.27;19.20;;;3.80;99.90;;;;;;5065971;28;20049;-79
2022/03/04 11:20:59;;;;;;;22.65;16.17;;;3.90;99.90;;;;;;5067738;28;20127;-86
2022/03/04 11:23:25;;;;;;;26.13;17.65;;;4.00;99.90;;;;;;5072201;28;20044;-81
2022/03/04 11:26:17;;;;;;;22.48;16.83;;;4.00;99.90;;;;;;5061838;28;20032;-81
2022/03/04 11:28:49;;;;;;;20.23;14.90;;;4.10;99.90;;;;;;5050741;28;20052;-84
2022/03/04 11:31:23;;;;;;;24.13;16.25;;;4.00;99.90;;;;;;5071069;28;20072;-81
2022/03/04 11:33:49;;;;;;;25.50;16.55;;;4.10;99.90;;;;;;5069933;28;20072;-80
2022/03/04 11:36:20;;;;;;;22.67;17.02;;;4.20;99.90;;;;;;5072092;28;20064;-79
2022/03/04 11:38:49;;;;;;;27.02;17.50;;;4.30;99.90;;;;;;5067829;28;20052;-79
2022/03/04 11:41:26;;;;;;;23.98;18.00;;;4.40;99.90;;;;;;5069048;28;20085;-79
2022/03/04 11:43:58;;;;;;;22.45;16.48;;;4.50;99.90;;;;;;5059867;28;20545;-80
2022/03/04 11:46:46;;;;;;;25.17;16.63;;;4.40;99.90;;;;;;5056637;28;20122;-78
2022/03/04 11:49:25;;;;;;;24.63;17.23;;;4.50;99.90;;;;;;5058519;28;20103;-79
2022/03/04 11:52:09;;;;;;;22.00;16.27;;;4.70;99.90;;;;;;5070746;28;20091;-78
2022/03/04 11:54:36;;;;;;;21.13;15.35;;;4.70;99.90;;;;;;5071743;28;20067;-79
2022/03/04 11:57:21;;;;;;;22.15;16.90;;;4.80;99.90;;;;;;5063936;28;20044;-79
2022/03/04 12:00:21;;;;;;;28.30;16.83;;;4.90;99.90;;;;;;5070386;28;20044;-77
2022/03/04 12:02:52;;;;;;;24.58;17.52;;;4.80;99.90;;;;;;5057278;28;20669;-79
2022/03/04 12:05:19;;;;;;;21.52;16.15;;;4.70;99.90;;;;;;5066113;28;20156;-78
2022/03/04 12:07:54;;;;;;;24.30;16.58;;;5.00;99.90;;;;;;5060441;28;20053;-78
2022/03/04 12:10:26;;;;;;;27.15;18.00;;;5.10;99.90;;;;;;5067428;28;20040;-78
2022/03/04 12:13:06;;;;;;;22.50;17.48;;;5.30;99.90;;;;;;5070443;28;20036;-78
2022/03/04 12:15:40;;;;;;;22.20;15.05;;;5.40;99.90;;;;;;5068407;28;20437;-77
2022/03/04 12:18:09;;;;;;;20.90;15.25;;;5.60;99.90;;;;;;5065418;28;20055;-79
2022/03/04 12:20:40;;;;;;;23.77;16.73;;;5.40;99.90;;;;;;5066337;28;20072;-80
2022/03/04 12:23:10;;;;;;;22.17;16.00;;;5.60;99.90;;;;;;5059219;28;20502;-78
2022/03/04 12:25:53;;;;;;;20.63;14.52;;;5.50;99.90;;;;;;5066768;28;20052;-78
2022/03/04 12:28:35;;;;;;;18.42;13.75;;;5.60;99.90;;;;;;5060875;28;20048;-77
2022/03/04 12:31:01;;;;;;;17.77;13.50;;;5.80;99.90;;;;;;5069971;28;20043;-77
2022/03/04 12:33:30;;;;;;;17.88;13.27;;;6.00;99.90;;;;;;5068352;28;20048;-76
2022/03/04 12:35:57;;;;;;;17.98;12.57;;;5.80;99.90;;;;;;5059254;28;20041;-75
2022/03/04 12:38:36;;;;;;;19.00;13.55;;;5.90;99.90;;;;;;5058697;28;20066;-79